Time;durP1;ratioP1;P1;durP2;ratioP2;P2;SDS_P1;SDS_P2;PMS_P1;PMS_P2;Temp;Humidity;BMP_temperature;BMP_pressure;BME280_temperature;BME280_humidity;BME280_pressure;Samples;Min_cycle;Max_cycle;Signal;HPM_P1;HPM_P2
2021/12/17 10:22:57;;;;;;;8.20;5.43;;;;;;;3.89;100.00;101117.66;5108305;28;20578;-86
2021/12/17 10:25:26;;;;;;;7.53;4.03;;;;;;;4.44;100.00;101115.03;5090203;28;38588;-82
2021/12/17 10:27:59;;;;;;;4.83;4.10;;;;;;;4.98;100.00;101129.75;5106944;28;42706;-81
2021/12/17 10:30:28;;;;;;;5.43;3.87;;;;;;;5.19;100.00;101112.19;5121476;27;42291;-87
2021/12/17 10:32:59;;;;;;;5.30;4.53;;;;;;;5.51;100.00;101141.78;5089423;28;41444;-82
2021/12/17 10:35:29;;;;;;;6.27;3.33;;;;;;;5.74;100.00;101149.53;5088946;28;38983;-84
2021/12/17 10:38:03;;;;;;;5.53;3.80;;;;;;;5.94;100.00;101152.03;5106153;28;41198;-83
2021/12/17 10:40:33;;;;;;;4.17;3.77;;;;;;;5.94;97.92;101139.78;5091004;28;42084;-84
2021/12/17 10:43:06;;;;;;;6.47;4.77;;;;;;;6.17;96.60;101149.28;5127308;28;41745;-83
2021/12/17 10:45:43;;;;;;;5.37;4.67;;;;;;;6.29;95.42;101143.91;5092553;28;39980;-80
2021/12/17 10:48:28;;;;;;;4.87;3.80;;;;;;;6.37;93.66;101128.91;5089683;28;40869;-80
2021/12/17 10:51:15;;;;;;;4.97;4.37;;;;;;;6.46;93.50;101128.81;5102811;28;41850;-84
2021/12/17 10:53:54;;;;;;;5.83;3.97;;;;;;;6.65;92.72;101151.47;5107968;28;42184;-83
2021/12/17 10:56:24;;;;;;;6.10;3.73;;;;;;;6.63;92.40;101123.41;5087449;28;39026;-84
2021/12/17 10:59:01;;;;;;;5.03;3.50;;;;;;;6.82;91.34;101141.63;5088448;28;41703;-82
2021/12/17 11:01:40;;;;;;;4.27;3.50;;;;;;;6.85;90.34;101133.69;5108964;28;43171;-82
2021/12/17 11:04:11;;;;;;;5.67;3.73;;;;;;;6.99;90.07;101143.19;5106854;28;42312;-82
2021/12/17 11:06:45;;;;;;;5.00;3.73;;;;;;;6.92;89.09;101139.78;5106041;28;40906;-82
2021/12/17 11:09:34;;;;;;;4.93;3.70;;;;;;;6.97;88.65;101139.69;5104992;28;42665;-81
2021/12/17 11:12:07;;;;;;;6.70;4.30;;;;;;;7.05;88.14;101140.47;5079477;28;43080;-86
2021/12/17 11:14:35;;;;;;;6.33;4.40;;;;;;;7.15;88.14;101144.78;5068096;28;41004;-87
2021/12/17 11:17:03;;;;;;;6.57;4.83;;;;;;;7.12;87.33;101139.53;5065719;28;39131;-85
2021/12/17 11:19:32;;;;;;;4.57;3.63;;;;;;;7.18;87.26;101136.81;5064295;28;42109;-83
2021/12/17 11:22:00;;;;;;;5.53;3.80;;;;;;;7.15;87.33;101113.16;5067447;28;41130;-83
2021/12/17 11:24:31;;;;;;;7.07;4.03;;;;;;;7.30;87.28;101122.59;5083835;28;41508;-81
2021/12/17 11:27:00;;;;;;;5.00;4.00;;;;;;;7.32;87.29;101121.69;5089316;28;40400;-88
2021/12/17 11:29:28;;;;;;;5.37;3.37;;;;;;;7.34;86.83;101116.41;5088076;28;40501;-85
2021/12/17 11:31:55;;;;;;;5.63;4.00;;;;;;;7.40;87.09;101114.56;5103191;28;43439;-81
2021/12/17 11:34:23;;;;;;;5.30;3.53;;;;;;;7.43;86.29;101119.78;5093795;28;41137;-82
2021/12/17 11:36:51;;;;;;;5.50;3.83;;;;;;;7.45;86.67;101104.81;5087819;28;39872;-83
2021/12/17 11:39:24;;;;;;;4.60;3.90;;;;;;;7.58;86.04;101103.75;5072878;28;40275;-82
2021/12/17 11:42:05;;;;;;;6.30;4.73;;;;;;;7.66;86.06;101098.41;5074578;28;41439;-86
2021/12/17 11:44:41;;;;;;;6.00;4.43;;;;;;;7.77;85.39;101103.50;5075157;28;40709;-85
2021/12/17 11:47:11;;;;;;;5.17;4.47;;;;;;;7.72;85.50;101102.69;5091794;28;39982;-85
2021/12/17 11:49:47;;;;;;;4.90;3.83;;;;;;;7.77;85.48;101087.69;5091201;28;41663;-87
2021/12/17 11:52:16;;;;;;;7.30;3.90;;;;;;;7.86;84.87;101092.81;5090737;28;45515;-86
2021/12/17 11:54:43;;;;;;;5.90;3.70;;;;;;;7.94;84.00;101104.09;5091042;28;41930;-82
2021/12/17 11:57:17;;;;;;;6.70;3.70;;;;;;;8.05;83.82;101110.06;5091362;28;40175;-89
2021/12/17 11:59:47;;;;;;;5.23;4.33;;;;;;;8.16;84.52;101105.47;5075140;28;40946;-87
2021/12/17 12:02:19;;;;;;;6.67;4.77;;;;;;;8.24;84.03;101092.16;5074870;28;41807;-87
2021/12/17 12:04:53;;;;;;;7.43;4.40;;;;;;;8.23;84.34;101067.53;5074826;28;42838;-88
2021/12/17 12:07:33;;;;;;;7.03;3.63;;;;;;;8.40;84.45;101085.78;5074319;28;40560;-85
2021/12/17 12:10:21;;;;;;;5.03;3.83;;;;;;;8.45;83.77;101077.75;5074482;28;41072;-82
2021/12/17 12:12:58;;;;;;;4.70;4.07;;;;;;;8.52;84.21;101079.38;5074877;28;41910;-83
2021/12/17 12:15:32;;;;;;;4.67;4.20;;;;;;;8.49;83.92;101066.22;5091904;28;42944;-83
2021/12/17 12:18:18;;;;;;;5.37;3.83;;;;;;;8.62;83.78;101080.94;5090967;28;40523;-85
2021/12/17 12:21:02;;;;;;;5.43;4.13;;;;;;;8.59;82.06;101081.88;5074679;28;40896;-82
2021/12/17 12:23:51;;;;;;;6.50;3.97;;;;;;;8.60;82.47;101078.34;5074152;28;41599;-85
2021/12/17 12:26:27;;;;;;;6.17;4.50;;;;;;;8.64;82.34;101085.31;5074239;28;40950;-83
2021/12/17 12:29:03;;;;;;;6.13;4.40;;;;;;;8.54;81.87;101080.19;5074516;28;39252;-83
2021/12/17 12:32:06;;;;;;;6.07;5.10;;;;;;;8.55;80.18;101089.88;5074598;28;41387;-83
2021/12/17 12:34:43;;;;;;;5.83;4.57;;;;;;;8.59;81.07;101100.38;5065481;28;43407;-87
2021/12/17 12:37:27;;;;;;;5.93;4.43;;;;;;;8.56;80.90;101091.63;5091421;28;40845;-84
2021/12/17 12:40:15;;;;;;;5.80;3.57;;;;;;;8.48;81.00;101078.56;5091266;28;40332;-85
2021/12/17 12:42:50;;;;;;;5.50;3.97;;;;;;;8.46;81.31;101074.22;5074683;28;41821;-83
2021/12/17 12:45:20;;;;;;;4.53;3.40;;;;;;;8.67;81.39;101102.84;5072406;28;41927;-87
2021/12/17 12:47:58;;;;;;;6.57;4.53;;;;;;;8.71;81.05;101096.63;5091095;28;42065;-85
2021/12/17 12:50:35;;;;;;;5.07;3.50;;;;;;;8.76;80.08;101100.06;5108452;28;39995;-80
2021/12/17 12:53:11;;;;;;;7.00;4.30;;;;;;;8.77;80.82;101085.06;5081831;28;42480;-80
2021/12/17 12:55:43;;;;;;;5.50;3.80;;;;;;;8.88;79.67;101105.09;5053545;28;42113;-82
2021/12/17 12:58:13;;;;;;;4.57;3.40;;;;;;;8.90;78.69;101108.56;5057265;28;40983;-82
2021/12/17 13:00:47;;;;;;;5.20;3.63;;;;;;;8.99;78.73;101105.75;5073996;28;40645;-85
2021/12/17 13:03:16;;;;;;;6.17;3.40;;;;;;;9.07;78.66;101104.72;5089803;28;41828;-80
2021/12/17 13:05:47;;;;;;;5.23;3.87;;;;;;;9.02;78.12;101085.47;5089886;28;42595;-83
2021/12/17 13:08:16;;;;;;;5.90;3.63;;;;;;;9.13;78.20;101089.63;5090603;28;42549;-83
2021/12/17 13:10:49;;;;;;;3.97;3.33;;;;;;;9.14;78.11;101079.91;5091582;28;39976;-84
2021/12/17 13:13:27;;;;;;;5.10;3.47;;;;;;;9.27;78.43;101086.69;5073230;28;40783;-86
2021/12/17 13:16:09;;;;;;;8.47;4.47;;;;;;;9.34;78.65;101083.00;5073052;28;42125;-81
2021/12/17 13:24:18;;;;;;;5.00;3.10;;;;;;;9.33;77.31;101083.88;5089830;28;40732;-81
2021/12/17 13:26:48;;;;;;;6.77;4.00;;;;;;;9.21;76.76;101070.94;5090757;28;41546;-85
2021/12/17 13:29:21;;;;;;;6.20;3.70;;;;;;;9.25;76.78;101089.34;5089671;28;41566;-84
2021/12/17 13:31:53;;;;;;;5.50;4.10;;;;;;;9.14;74.97;101107.22;5072587;28;39270;-82
2021/12/17 13:34:27;;;;;;;7.30;3.20;;;;;;;9.02;74.83;101116.25;5073084;28;41922;-82
2021/12/17 13:37:14;;;;;;;6.77;3.90;;;;;;;8.96;74.94;101111.09;5073153;28;41959;-83
2021/12/17 13:39:45;;;;;;;5.90;3.40;;;;;;;8.85;75.20;101105.16;5072254;28;41943;-83
2021/12/17 13:42:16;;;;;;;3.90;3.00;;;;;;;8.77;75.85;101088.59;5074137;28;38891;-84
2021/12/17 13:44:47;;;;;;;6.47;4.03;;;;;;;8.85;75.30;101110.44;5073738;28;40970;-81
2021/12/17 13:47:27;;;;;;;6.30;3.87;;;;;;;8.85;75.85;101102.50;5066938;28;42577;-81
2021/12/17 13:50:10;;;;;;;5.80;3.77;;;;;;;8.88;76.72;101102.47;5052577;28;41149;-83
2021/12/17 13:52:39;;;;;;;3.90;3.50;;;;;;;8.87;76.45;101092.78;5053600;28;39714;-83
2021/12/17 13:55:12;;;;;;;4.97;3.23;;;;;;;8.76;76.53;101068.34;5081113;28;42449;-82
2021/12/17 13:57:42;;;;;;;5.27;3.00;;;;;;;8.81;76.27;101089.38;5073496;28;42124;-85
2021/12/17 14:00:13;;;;;;;5.17;3.30;;;;;;;8.68;76.55;101070.25;5072684;28;42219;-83
2021/12/17 14:02:45;;;;;;;5.93;3.43;;;;;;;8.74;76.72;101064.88;5090820;28;39131;-81
2021/12/17 14:05:20;;;;;;;3.83;3.07;;;;;;;8.77;76.89;101070.09;5076148;28;41778;-85
2021/12/17 14:07:50;;;;;;;4.57;3.30;;;;;;;8.65;76.78;101063.25;5052618;28;42935;-85
2021/12/17 14:10:20;;;;;;;4.63;2.87;;;;;;;8.65;76.71;101051.84;5052702;28;41039;-85
2021/12/17 14:12:49;;;;;;;5.60;3.70;;;;;;;8.66;76.71;101050.91;5053811;28;39053;-85
2021/12/17 14:15:19;;;;;;;4.70;3.50;;;;;;;8.77;76.90;101064.81;5068864;28;41183;-82
2021/12/17 14:17:50;;;;;;;5.33;3.83;;;;;;;8.78;76.92;101058.59;5053052;28;43186;-83
2021/12/17 14:20:20;;;;;;;4.97;3.10;;;;;;;8.78;76.94;101055.94;5068662;28;41255;-83
2021/12/17 14:22:50;;;;;;;5.83;3.33;;;;;;;8.76;77.06;101047.22;5053108;28;40217;-83
2021/12/17 14:25:33;;;;;;;4.73;2.70;;;;;;;8.78;76.88;101050.66;5068964;28;40729;-83
2021/12/17 14:28:03;;;;;;;4.13;3.20;;;;;;;8.71;76.74;101038.50;5069102;28;42895;-82
2021/12/17 14:30:34;;;;;;;4.07;2.73;;;;;;;8.71;76.56;101043.78;5068355;28;42372;-80
2021/12/17 14:33:10;;;;;;;6.37;3.63;;;;;;;8.63;76.82;101036.03;5057756;28;39970;-83
2021/12/17 14:35:43;;;;;;;3.57;2.70;;;;;;;8.69;76.73;101061.44;5068446;28;40880;-86
2021/12/17 14:38:11;;;;;;;4.03;2.93;;;;;;;8.62;77.22;101043.97;5040339;28;41604;-85
2021/12/17 14:40:44;;;;;;;3.63;2.57;;;;;;;8.68;77.03;101059.69;5072017;28;41408;-81
2021/12/17 14:43:24;;;;;;;2.97;2.27;;;;;;;8.60;76.88;101045.75;5070697;28;38961;-82
2021/12/17 14:45:55;;;;;;;4.20;2.87;;;;;;;8.57;77.11;101046.69;5071652;28;42375;-80
2021/12/17 14:48:35;;;;;;;3.97;3.50;;;;;;;8.54;77.15;101043.22;5057452;28;42122;-82
